sensor_id;sensor_type;location;lat;lon;timestamp;P1;durP1;ratioP1;P2;durP2;ratioP2
44987;SDS011;35735;52.226;21.254;2023-04-24T00:02:58;11.07;;;8.10;;
44987;SDS011;35735;52.226;21.254;2023-04-24T00:07:58;11.50;;;8.10;;
44987;SDS011;35735;52.226;21.254;2023-04-24T00:12:59;16.45;;;8.43;;
44987;SDS011;35735;52.226;21.254;2023-04-24T00:17:59;12.68;;;8.30;;
44987;SDS011;35735;52.226;21.254;2023-04-24T00:23:00;14.60;;;8.48;;
44987;SDS011;35735;52.226;21.254;2023-04-24T00:28:01;13.77;;;8.38;;
44987;SDS011;35735;52.226;21.254;2023-04-24T00:33:01;16.73;;;9.00;;
44987;SDS011;35735;52.226;21.254;2023-04-24T00:38:02;11.15;;;8.20;;
44987;SDS011;35735;52.226;21.254;2023-04-24T00:43:02;11.45;;;8.85;;
44987;SDS011;35735;52.226;21.254;2023-04-24T00:48:03;12.63;;;8.60;;
44987;SDS011;35735;52.226;21.254;2023-04-24T00:53:04;13.52;;;8.18;;
44987;SDS011;35735;52.226;21.254;2023-04-24T00:58:05;16.58;;;8.95;;
44987;SDS011;35735;52.226;21.254;2023-04-24T01:03:05;16.85;;;8.98;;
44987;SDS011;35735;52.226;21.254;2023-04-24T01:08:07;13.00;;;8.63;;
44987;SDS011;35735;52.226;21.254;2023-04-24T01:13:08;12.43;;;8.25;;
44987;SDS011;35735;52.226;21.254;2023-04-24T01:18:08;17.60;;;9.57;;
44987;SDS011;35735;52.226;21.254;2023-04-24T01:23:09;16.33;;;8.68;;
44987;SDS011;35735;52.226;21.254;2023-04-24T01:28:10;15.57;;;9.18;;
44987;SDS011;35735;52.226;21.254;2023-04-24T01:33:10;11.77;;;8.63;;
44987;SDS011;35735;52.226;21.254;2023-04-24T01:38:11;12.98;;;8.60;;
44987;SDS011;35735;52.226;21.254;2023-04-24T01:43:12;14.00;;;8.40;;
44987;SDS011;35735;52.226;21.254;2023-04-24T01:48:13;12.27;;;8.85;;
44987;SDS011;35735;52.226;21.254;2023-04-24T01:53:13;101.10;;;13.07;;
44987;SDS011;35735;52.226;21.254;2023-04-24T01:58:14;35.75;;;9.77;;
44987;SDS011;35735;52.226;21.254;2023-04-24T02:03:14;17.55;;;9.35;;
44987;SDS011;35735;52.226;21.254;2023-04-24T02:08:15;15.75;;;9.10;;
44987;SDS011;35735;52.226;21.254;2023-04-24T02:13:16;13.93;;;8.82;;
44987;SDS011;35735;52.226;21.254;2023-04-24T02:18:16;16.37;;;9.65;;
44987;SDS011;35735;52.226;21.254;2023-04-24T02:23:17;10.75;;;8.40;;
44987;SDS011;35735;52.226;21.254;2023-04-24T02:28:17;12.60;;;7.95;;
44987;SDS011;35735;52.226;21.254;2023-04-24T02:33:18;14.13;;;8.88;;
44987;SDS011;35735;52.226;21.254;2023-04-24T02:38:18;15.10;;;8.85;;
44987;SDS011;35735;52.226;21.254;2023-04-24T02:43:19;11.23;;;8.63;;
44987;SDS011;35735;52.226;21.254;2023-04-24T02:48:19;14.30;;;9.23;;
44987;SDS011;35735;52.226;21.254;2023-04-24T02:53:20;12.00;;;8.90;;
44987;SDS011;35735;52.226;21.254;2023-04-24T02:58:21;11.40;;;8.73;;
44987;SDS011;35735;52.226;21.254;2023-04-24T03:03:21;12.70;;;9.10;;
44987;SDS011;35735;52.226;21.254;2023-04-24T03:08:22;10.98;;;9.20;;
44987;SDS011;35735;52.226;21.254;2023-04-24T03:13:23;14.07;;;8.95;;
44987;SDS011;35735;52.226;21.254;2023-04-24T03:18:23;12.80;;;9.40;;
44987;SDS011;35735;52.226;21.254;2023-04-24T03:23:24;12.50;;;8.55;;
44987;SDS011;35735;52.226;21.254;2023-04-24T03:28:25;12.98;;;8.82;;
44987;SDS011;35735;52.226;21.254;2023-04-24T03:33:25;11.30;;;8.45;;
44987;SDS011;35735;52.226;21.254;2023-04-24T03:38:26;14.75;;;8.70;;
44987;SDS011;35735;52.226;21.254;2023-04-24T03:43:26;19.42;;;9.82;;
44987;SDS011;35735;52.226;21.254;2023-04-24T03:48:27;16.27;;;9.10;;
44987;SDS011;35735;52.226;21.254;2023-04-24T03:53:27;16.83;;;8.52;;
44987;SDS011;35735;52.226;21.254;2023-04-24T03:58:28;13.55;;;8.23;;
44987;SDS011;35735;52.226;21.254;2023-04-24T04:03:28;11.65;;;8.70;;
44987;SDS011;35735;52.226;21.254;2023-04-24T04:08:29;13.27;;;8.90;;
44987;SDS011;35735;52.226;21.254;2023-04-24T04:13:30;16.98;;;9.40;;
44987;SDS011;35735;52.226;21.254;2023-04-24T04:18:30;17.37;;;9.13;;
44987;SDS011;35735;52.226;21.254;2023-04-24T04:23:31;16.37;;;9.27;;
44987;SDS011;35735;52.226;21.254;2023-04-24T04:28:31;15.27;;;9.50;;
44987;SDS011;35735;52.226;21.254;2023-04-24T04:33:32;14.27;;;9.18;;
44987;SDS011;35735;52.226;21.254;2023-04-24T04:38:32;16.45;;;9.73;;
44987;SDS011;35735;52.226;21.254;2023-04-24T04:43:33;29.33;;;10.30;;
44987;SDS011;35735;52.226;21.254;2023-04-24T04:48:34;25.70;;;10.32;;
44987;SDS011;35735;52.226;21.254;2023-04-24T04:53:34;26.08;;;10.40;;
44987;SDS011;35735;52.226;21.254;2023-04-24T04:58:35;18.35;;;10.27;;
44987;SDS011;35735;52.226;21.254;2023-04-24T05:03:35;18.02;;;9.07;;
44987;SDS011;35735;52.226;21.254;2023-04-24T05:08:36;15.10;;;9.32;;
44987;SDS011;35735;52.226;21.254;2023-04-24T05:13:36;12.88;;;9.40;;
44987;SDS011;35735;52.226;21.254;2023-04-24T05:18:37;12.57;;;8.80;;
44987;SDS011;35735;52.226;21.254;2023-04-24T05:23:37;15.07;;;8.85;;
44987;SDS011;35735;52.226;21.254;2023-04-24T05:28:38;18.90;;;9.02;;
44987;SDS011;35735;52.226;21.254;2023-04-24T05:33:38;12.37;;;8.93;;
44987;SDS011;35735;52.226;21.254;2023-04-24T05:38:39;17.17;;;9.23;;
44987;SDS011;35735;52.226;21.254;2023-04-24T05:43:40;22.20;;;8.95;;
44987;SDS011;35735;52.226;21.254;2023-04-24T05:48:40;15.63;;;8.57;;
44987;SDS011;35735;52.226;21.254;2023-04-24T05:53:41;11.30;;;8.20;;
44987;SDS011;35735;52.226;21.254;2023-04-24T05:58:41;15.40;;;8.55;;
44987;SDS011;35735;52.226;21.254;2023-04-24T06:03:42;15.07;;;8.13;;
44987;SDS011;35735;52.226;21.254;2023-04-24T06:08:42;16.17;;;8.50;;
44987;SDS011;35735;52.226;21.254;2023-04-24T06:13:43;15.50;;;8.90;;
44987;SDS011;35735;52.226;21.254;2023-04-24T06:18:43;20.48;;;8.98;;
44987;SDS011;35735;52.226;21.254;2023-04-24T06:23:44;16.58;;;8.82;;
44987;SDS011;35735;52.226;21.254;2023-04-24T06:28:44;12.45;;;8.57;;
44987;SDS011;35735;52.226;21.254;2023-04-24T06:33:45;12.23;;;8.57;;
44987;SDS011;35735;52.226;21.254;2023-04-24T06:38:46;21.75;;;8.98;;
44987;SDS011;35735;52.226;21.254;2023-04-24T06:43:46;14.13;;;8.38;;
44987;SDS011;35735;52.226;21.254;2023-04-24T06:48:47;14.52;;;9.20;;
44987;SDS011;35735;52.226;21.254;2023-04-24T06:53:47;15.05;;;8.05;;
44987;SDS011;35735;52.226;21.254;2023-04-24T06:58:48;14.73;;;8.15;;
44987;SDS011;35735;52.226;21.254;2023-04-24T07:03:48;15.88;;;8.25;;
44987;SDS011;35735;52.226;21.254;2023-04-24T07:08:49;12.55;;;8.55;;
44987;SDS011;35735;52.226;21.254;2023-04-24T07:13:49;15.95;;;7.40;;
44987;SDS011;35735;52.226;21.254;2023-04-24T07:18:50;11.45;;;7.68;;
44987;SDS011;35735;52.226;21.254;2023-04-24T07:23:51;10.95;;;7.20;;
44987;SDS011;35735;52.226;21.254;2023-04-24T07:28:52;9.40;;;6.82;;
44987;SDS011;35735;52.226;21.254;2023-04-24T07:33:53;18.08;;;7.72;;
44987;SDS011;35735;52.226;21.254;2023-04-24T07:38:53;8.65;;;6.68;;
44987;SDS011;35735;52.226;21.254;2023-04-24T07:43:54;10.00;;;6.68;;
44987;SDS011;35735;52.226;21.254;2023-04-24T07:48:55;9.82;;;6.78;;
44987;SDS011;35735;52.226;21.254;2023-04-24T07:53:56;25.17;;;7.07;;
44987;SDS011;35735;52.226;21.254;2023-04-24T07:58:56;11.88;;;6.60;;
44987;SDS011;35735;52.226;21.254;2023-04-24T08:03:57;9.10;;;6.80;;
44987;SDS011;35735;52.226;21.254;2023-04-24T08:08:57;8.43;;;7.03;;
44987;SDS011;35735;52.226;21.254;2023-04-24T08:13:58;10.40;;;5.90;;
44987;SDS011;35735;52.226;21.254;2023-04-24T08:18:59;10.73;;;6.78;;
44987;SDS011;35735;52.226;21.254;2023-04-24T08:23:59;9.38;;;6.45;;
44987;SDS011;35735;52.226;21.254;2023-04-24T08:29:00;8.93;;;6.40;;
44987;SDS011;35735;52.226;21.254;2023-04-24T08:34:00;11.88;;;6.20;;
44987;SDS011;35735;52.226;21.254;2023-04-24T08:39:01;8.38;;;6.10;;
44987;SDS011;35735;52.226;21.254;2023-04-24T08:44:02;7.37;;;5.78;;
44987;SDS011;35735;52.226;21.254;2023-04-24T08:49:02;14.15;;;6.32;;
44987;SDS011;35735;52.226;21.254;2023-04-24T08:54:04;11.88;;;6.30;;
44987;SDS011;35735;52.226;21.254;2023-04-24T08:59:05;9.32;;;6.47;;
44987;SDS011;35735;52.226;21.254;2023-04-24T09:04:07;9.90;;;6.37;;
44987;SDS011;35735;52.226;21.254;2023-04-24T09:09:09;7.30;;;5.65;;
44987;SDS011;35735;52.226;21.254;2023-04-24T09:14:10;10.23;;;6.03;;
44987;SDS011;35735;52.226;21.254;2023-04-24T09:19:11;22.87;;;6.93;;
44987;SDS011;35735;52.226;21.254;2023-04-24T09:24:16;8.10;;;5.70;;
44987;SDS011;35735;52.226;21.254;2023-04-24T09:29:19;12.45;;;6.72;;
44987;SDS011;35735;52.226;21.254;2023-04-24T09:34:23;15.00;;;7.22;;
44987;SDS011;35735;52.226;21.254;2023-04-24T09:39:25;85.00;;;11.10;;
44987;SDS011;35735;52.226;21.254;2023-04-24T09:44:26;11.10;;;6.32;;
44987;SDS011;35735;52.226;21.254;2023-04-24T09:49:28;12.48;;;6.78;;
44987;SDS011;35735;52.226;21.254;2023-04-24T09:54:30;20.95;;;6.93;;
44987;SDS011;35735;52.226;21.254;2023-04-24T09:59:31;8.55;;;6.85;;
44987;SDS011;35735;52.226;21.254;2023-04-24T10:04:31;10.15;;;6.30;;
44987;SDS011;35735;52.226;21.254;2023-04-24T10:09:32;14.90;;;6.72;;
44987;SDS011;35735;52.226;21.254;2023-04-24T10:14:33;13.80;;;6.60;;
44987;SDS011;35735;52.226;21.254;2023-04-24T10:19:34;10.88;;;6.25;;
44987;SDS011;35735;52.226;21.254;2023-04-24T10:24:35;8.55;;;6.57;;
44987;SDS011;35735;52.226;21.254;2023-04-24T10:29:36;11.20;;;6.45;;
44987;SDS011;35735;52.226;21.254;2023-04-24T10:34:39;6.97;;;6.28;;
44987;SDS011;35735;52.226;21.254;2023-04-24T10:39:39;9.18;;;6.00;;
44987;SDS011;35735;52.226;21.254;2023-04-24T10:44:40;8.68;;;6.20;;
44987;SDS011;35735;52.226;21.254;2023-04-24T10:49:40;8.77;;;6.45;;
44987;SDS011;35735;52.226;21.254;2023-04-24T10:54:42;8.60;;;6.45;;
44987;SDS011;35735;52.226;21.254;2023-04-24T10:59:46;9.85;;;6.40;;
44987;SDS011;35735;52.226;21.254;2023-04-24T11:04:48;9.15;;;6.28;;
44987;SDS011;35735;52.226;21.254;2023-04-24T11:09:57;14.32;;;6.18;;
44987;SDS011;35735;52.226;21.254;2023-04-24T11:15:01;8.32;;;5.82;;
44987;SDS011;35735;52.226;21.254;2023-04-24T11:20:11;9.30;;;6.25;;
44987;SDS011;35735;52.226;21.254;2023-04-24T11:25:17;19.00;;;6.87;;
44987;SDS011;35735;52.226;21.254;2023-04-24T11:30:17;17.65;;;6.50;;
44987;SDS011;35735;52.226;21.254;2023-04-24T11:35:21;8.40;;;5.62;;
44987;SDS011;35735;52.226;21.254;2023-04-24T11:40:22;9.75;;;5.45;;
44987;SDS011;35735;52.226;21.254;2023-04-24T11:45:27;9.27;;;5.35;;
44987;SDS011;35735;52.226;21.254;2023-04-24T11:50:29;6.60;;;5.18;;
44987;SDS011;35735;52.226;21.254;2023-04-24T11:55:29;7.15;;;4.68;;
44987;SDS011;35735;52.226;21.254;2023-04-24T12:00:31;6.47;;;4.28;;
44987;SDS011;35735;52.226;21.254;2023-04-24T12:05:32;4.72;;;4.20;;
44987;SDS011;35735;52.226;21.254;2023-04-24T12:10:33;5.57;;;4.60;;
44987;SDS011;35735;52.226;21.254;2023-04-24T12:15:34;9.45;;;4.45;;
44987;SDS011;35735;52.226;21.254;2023-04-24T12:20:35;8.30;;;4.97;;
44987;SDS011;35735;52.226;21.254;2023-04-24T12:25:36;12.98;;;4.95;;
44987;SDS011;35735;52.226;21.254;2023-04-24T12:30:42;4.53;;;4.10;;
44987;SDS011;35735;52.226;21.254;2023-04-24T12:35:47;10.27;;;4.47;;
44987;SDS011;35735;52.226;21.254;2023-04-24T12:41:00;9.20;;;5.28;;
44987;SDS011;35735;52.226;21.254;2023-04-24T12:46:12;5.03;;;4.53;;
44987;SDS011;35735;52.226;21.254;2023-04-24T12:51:13;6.97;;;4.70;;
44987;SDS011;35735;52.226;21.254;2023-04-24T12:56:13;5.43;;;4.30;;
44987;SDS011;35735;52.226;21.254;2023-04-24T13:01:14;7.37;;;4.30;;
44987;SDS011;35735;52.226;21.254;2023-04-24T13:06:14;9.35;;;4.30;;
44987;SDS011;35735;52.226;21.254;2023-04-24T13:11:15;21.20;;;4.43;;
44987;SDS011;35735;52.226;21.254;2023-04-24T13:16:15;34.95;;;5.60;;
44987;SDS011;35735;52.226;21.254;2023-04-24T13:21:16;19.40;;;5.00;;
44987;SDS011;35735;52.226;21.254;2023-04-24T13:26:17;9.20;;;4.45;;
44987;SDS011;35735;52.226;21.254;2023-04-24T13:31:18;8.25;;;4.20;;
44987;SDS011;35735;52.226;21.254;2023-04-24T13:36:18;6.53;;;4.00;;
44987;SDS011;35735;52.226;21.254;2023-04-24T13:41:19;5.93;;;4.40;;
44987;SDS011;35735;52.226;21.254;2023-04-24T13:46:19;6.72;;;4.22;;
44987;SDS011;35735;52.226;21.254;2023-04-24T13:51:20;9.02;;;4.85;;
44987;SDS011;35735;52.226;21.254;2023-04-24T13:56:20;8.38;;;4.47;;
44987;SDS011;35735;52.226;21.254;2023-04-24T14:01:21;6.12;;;4.25;;
44987;SDS011;35735;52.226;21.254;2023-04-24T14:06:22;5.30;;;3.90;;
44987;SDS011;35735;52.226;21.254;2023-04-24T14:11:23;6.43;;;4.15;;
44987;SDS011;35735;52.226;21.254;2023-04-24T14:16:24;3.60;;;3.00;;
44987;SDS011;35735;52.226;21.254;2023-04-24T14:21:25;3.25;;;2.80;;
44987;SDS011;35735;52.226;21.254;2023-04-24T14:26:25;3.28;;;2.97;;
44987;SDS011;35735;52.226;21.254;2023-04-24T14:31:26;5.75;;;3.15;;
44987;SDS011;35735;52.226;21.254;2023-04-24T14:36:27;3.37;;;2.97;;
44987;SDS011;35735;52.226;21.254;2023-04-24T14:41:27;3.55;;;2.97;;
44987;SDS011;35735;52.226;21.254;2023-04-24T14:46:28;4.45;;;3.35;;
44987;SDS011;35735;52.226;21.254;2023-04-24T14:51:29;4.25;;;3.60;;
44987;SDS011;35735;52.226;21.254;2023-04-24T14:56:30;8.25;;;3.72;;
44987;SDS011;35735;52.226;21.254;2023-04-24T15:01:30;5.55;;;4.07;;
44987;SDS011;35735;52.226;21.254;2023-04-24T15:06:31;8.27;;;3.97;;
44987;SDS011;35735;52.226;21.254;2023-04-24T15:11:32;6.25;;;4.18;;
44987;SDS011;35735;52.226;21.254;2023-04-24T15:16:32;8.57;;;4.25;;
44987;SDS011;35735;52.226;21.254;2023-04-24T15:21:33;10.05;;;4.43;;
44987;SDS011;35735;52.226;21.254;2023-04-24T15:26:33;6.47;;;4.35;;
44987;SDS011;35735;52.226;21.254;2023-04-24T15:31:34;6.35;;;3.90;;
44987;SDS011;35735;52.226;21.254;2023-04-24T15:36:34;5.90;;;3.80;;
44987;SDS011;35735;52.226;21.254;2023-04-24T15:41:35;8.45;;;4.20;;
44987;SDS011;35735;52.226;21.254;2023-04-24T15:46:36;6.95;;;4.10;;
44987;SDS011;35735;52.226;21.254;2023-04-24T15:51:36;7.62;;;4.00;;
44987;SDS011;35735;52.226;21.254;2023-04-24T15:56:37;7.18;;;4.30;;
44987;SDS011;35735;52.226;21.254;2023-04-24T16:01:37;4.70;;;3.87;;
44987;SDS011;35735;52.226;21.254;2023-04-24T16:06:38;6.62;;;4.32;;
44987;SDS011;35735;52.226;21.254;2023-04-24T16:11:38;7.10;;;4.37;;
44987;SDS011;35735;52.226;21.254;2023-04-24T16:16:39;5.40;;;4.00;;
44987;SDS011;35735;52.226;21.254;2023-04-24T16:21:39;4.85;;;4.20;;
44987;SDS011;35735;52.226;21.254;2023-04-24T16:26:40;4.45;;;3.47;;
44987;SDS011;35735;52.226;21.254;2023-04-24T16:31:41;5.20;;;4.15;;
44987;SDS011;35735;52.226;21.254;2023-04-24T16:36:42;3.85;;;2.90;;
44987;SDS011;35735;52.226;21.254;2023-04-24T16:41:42;5.95;;;3.85;;
44987;SDS011;35735;52.226;21.254;2023-04-24T16:46:43;6.43;;;3.78;;
44987;SDS011;35735;52.226;21.254;2023-04-24T16:51:43;6.57;;;3.72;;
44987;SDS011;35735;52.226;21.254;2023-04-24T16:56:44;4.87;;;3.75;;
44987;SDS011;35735;52.226;21.254;2023-04-24T17:01:44;6.07;;;4.15;;
44987;SDS011;35735;52.226;21.254;2023-04-24T17:06:45;4.20;;;3.62;;
44987;SDS011;35735;52.226;21.254;2023-04-24T17:11:45;6.43;;;3.70;;
44987;SDS011;35735;52.226;21.254;2023-04-24T17:16:46;5.20;;;4.20;;
44987;SDS011;35735;52.226;21.254;2023-04-24T17:21:47;8.05;;;4.45;;
44987;SDS011;35735;52.226;21.254;2023-04-24T17:26:47;15.77;;;5.25;;
44987;SDS011;35735;52.226;21.254;2023-04-24T17:31:48;6.70;;;4.87;;
44987;SDS011;35735;52.226;21.254;2023-04-24T17:36:48;50.50;;;8.82;;
44987;SDS011;35735;52.226;21.254;2023-04-24T17:41:49;13.98;;;6.43;;
44987;SDS011;35735;52.226;21.254;2023-04-24T17:46:49;8.30;;;5.85;;
44987;SDS011;35735;52.226;21.254;2023-04-24T17:51:50;7.47;;;5.62;;
44987;SDS011;35735;52.226;21.254;2023-04-24T17:56:51;8.75;;;5.87;;
44987;SDS011;35735;52.226;21.254;2023-04-24T18:01:51;12.85;;;6.30;;
44987;SDS011;35735;52.226;21.254;2023-04-24T18:06:52;15.70;;;7.50;;
44987;SDS011;35735;52.226;21.254;2023-04-24T18:11:52;20.30;;;7.37;;
44987;SDS011;35735;52.226;21.254;2023-04-24T18:16:53;20.02;;;8.10;;
44987;SDS011;35735;52.226;21.254;2023-04-24T18:21:54;13.57;;;6.60;;
44987;SDS011;35735;52.226;21.254;2023-04-24T18:26:55;15.77;;;7.82;;
44987;SDS011;35735;52.226;21.254;2023-04-24T18:31:55;16.83;;;8.23;;
44987;SDS011;35735;52.226;21.254;2023-04-24T18:36:56;13.32;;;7.22;;
44987;SDS011;35735;52.226;21.254;2023-04-24T18:41:56;9.77;;;7.25;;
44987;SDS011;35735;52.226;21.254;2023-04-24T18:46:57;10.40;;;6.65;;
44987;SDS011;35735;52.226;21.254;2023-04-24T18:51:57;15.63;;;7.35;;
44987;SDS011;35735;52.226;21.254;2023-04-24T18:56:58;10.23;;;6.85;;
44987;SDS011;35735;52.226;21.254;2023-04-24T19:01:59;10.52;;;6.80;;
44987;SDS011;35735;52.226;21.254;2023-04-24T19:06:59;13.98;;;7.25;;
44987;SDS011;35735;52.226;21.254;2023-04-24T19:12:00;14.77;;;7.93;;
44987;SDS011;35735;52.226;21.254;2023-04-24T19:17:00;11.05;;;7.30;;
44987;SDS011;35735;52.226;21.254;2023-04-24T19:22:01;13.95;;;7.57;;
44987;SDS011;35735;52.226;21.254;2023-04-24T19:27:02;16.25;;;9.27;;
44987;SDS011;35735;52.226;21.254;2023-04-24T19:32:02;18.75;;;11.15;;
44987;SDS011;35735;52.226;21.254;2023-04-24T19:37:03;19.10;;;11.32;;
44987;SDS011;35735;52.226;21.254;2023-04-24T19:42:03;14.68;;;9.82;;
44987;SDS011;35735;52.226;21.254;2023-04-24T19:47:04;17.87;;;9.63;;
44987;SDS011;35735;52.226;21.254;2023-04-24T19:52:04;17.42;;;9.10;;
44987;SDS011;35735;52.226;21.254;2023-04-24T19:57:05;14.48;;;9.50;;
44987;SDS011;35735;52.226;21.254;2023-04-24T20:02:06;15.07;;;9.38;;
44987;SDS011;35735;52.226;21.254;2023-04-24T20:07:07;15.10;;;8.70;;
44987;SDS011;35735;52.226;21.254;2023-04-24T20:12:08;12.40;;;8.95;;
44987;SDS011;35735;52.226;21.254;2023-04-24T20:17:09;14.45;;;9.75;;
44987;SDS011;35735;52.226;21.254;2023-04-24T20:22:09;12.52;;;9.40;;
44987;SDS011;35735;52.226;21.254;2023-04-24T20:27:10;13.20;;;8.68;;
44987;SDS011;35735;52.226;21.254;2023-04-24T20:32:11;18.35;;;8.40;;
44987;SDS011;35735;52.226;21.254;2023-04-24T20:37:11;11.95;;;8.45;;
44987;SDS011;35735;52.226;21.254;2023-04-24T20:42:12;12.85;;;9.10;;
44987;SDS011;35735;52.226;21.254;2023-04-24T20:47:12;14.32;;;9.02;;
44987;SDS011;35735;52.226;21.254;2023-04-24T20:52:13;18.15;;;10.02;;
44987;SDS011;35735;52.226;21.254;2023-04-24T20:57:14;8.73;;;7.68;;
44987;SDS011;35735;52.226;21.254;2023-04-24T21:02:14;11.02;;;6.93;;
44987;SDS011;35735;52.226;21.254;2023-04-24T21:07:15;12.02;;;7.40;;
44987;SDS011;35735;52.226;21.254;2023-04-24T21:12:16;9.98;;;7.28;;
44987;SDS011;35735;52.226;21.254;2023-04-24T21:17:16;11.35;;;7.10;;
44987;SDS011;35735;52.226;21.254;2023-04-24T21:22:17;13.62;;;7.90;;
44987;SDS011;35735;52.226;21.254;2023-04-24T21:27:18;13.40;;;6.93;;
44987;SDS011;35735;52.226;21.254;2023-04-24T21:32:18;9.75;;;7.10;;
44987;SDS011;35735;52.226;21.254;2023-04-24T21:37:19;13.32;;;7.20;;
44987;SDS011;35735;52.226;21.254;2023-04-24T21:42:19;10.23;;;7.90;;
44987;SDS011;35735;52.226;21.254;2023-04-24T21:47:20;14.10;;;7.65;;
44987;SDS011;35735;52.226;21.254;2023-04-24T21:52:20;18.48;;;8.07;;
44987;SDS011;35735;52.226;21.254;2023-04-24T21:57:21;10.68;;;7.80;;
44987;SDS011;35735;52.226;21.254;2023-04-24T22:02:22;12.93;;;8.63;;
44987;SDS011;35735;52.226;21.254;2023-04-24T22:07:22;12.85;;;8.77;;
44987;SDS011;35735;52.226;21.254;2023-04-24T22:12:23;12.93;;;9.10;;
44987;SDS011;35735;52.226;21.254;2023-04-24T22:17:23;12.13;;;7.87;;
44987;SDS011;35735;52.226;21.254;2023-04-24T22:22:24;12.10;;;8.20;;
44987;SDS011;35735;52.226;21.254;2023-04-24T22:27:24;13.95;;;8.35;;
44987;SDS011;35735;52.226;21.254;2023-04-24T22:32:25;13.43;;;8.48;;
44987;SDS011;35735;52.226;21.254;2023-04-24T22:37:26;12.57;;;9.50;;
44987;SDS011;35735;52.226;21.254;2023-04-24T22:42:27;9.93;;;8.35;;
44987;SDS011;35735;52.226;21.254;2023-04-24T22:47:28;12.95;;;8.50;;
44987;SDS011;35735;52.226;21.254;2023-04-24T22:52:28;11.90;;;9.20;;
44987;SDS011;35735;52.226;21.254;2023-04-24T22:57:29;12.80;;;8.20;;
44987;SDS011;35735;52.226;21.254;2023-04-24T23:02:30;9.80;;;8.50;;
44987;SDS011;35735;52.226;21.254;2023-04-24T23:07:30;13.23;;;8.63;;
44987;SDS011;35735;52.226;21.254;2023-04-24T23:12:31;13.10;;;9.25;;
44987;SDS011;35735;52.226;21.254;2023-04-24T23:17:31;12.23;;;8.68;;
44987;SDS011;35735;52.226;21.254;2023-04-24T23:22:32;9.73;;;8.38;;
44987;SDS011;35735;52.226;21.254;2023-04-24T23:27:33;11.98;;;8.73;;
44987;SDS011;35735;52.226;21.254;2023-04-24T23:32:34;17.52;;;8.80;;
44987;SDS011;35735;52.226;21.254;2023-04-24T23:37:34;10.30;;;8.95;;
44987;SDS011;35735;52.226;21.254;2023-04-24T23:42:35;11.60;;;9.32;;
44987;SDS011;35735;52.226;21.254;2023-04-24T23:47:36;13.15;;;9.95;;
44987;SDS011;35735;52.226;21.254;2023-04-24T23:52:36;12.27;;;9.40;;
44987;SDS011;35735;52.226;21.254;2023-04-24T23:57:37;14.77;;;9.38;;
